createdAt,value
2023-05-06T00:00:17.607Z,11.79
2023-05-06T00:03:19.518Z,11.84
2023-05-06T00:06:21.374Z,11.81
2023-05-06T00:09:24.356Z,11.85
2023-05-06T00:12:26.250Z,11.87
2023-05-06T00:15:29.213Z,11.82
2023-05-06T00:18:32.562Z,11.83
2023-05-06T00:21:34.431Z,11.82
2023-05-06T00:24:36.245Z,11.83
2023-05-06T00:27:38.831Z,11.85
2023-05-06T00:30:40.413Z,11.86
2023-05-06T00:33:42.612Z,11.81
2023-05-06T00:36:44.595Z,11.82
2023-05-06T00:39:46.353Z,11.80
2023-05-06T00:42:48.071Z,11.77
2023-05-06T00:45:51.348Z,11.73
2023-05-06T00:48:53.580Z,11.74
2023-05-06T00:51:56.531Z,11.84
2023-05-06T00:54:58.655Z,11.82
2023-05-06T00:58:01.222Z,11.79
2023-05-06T01:01:03.238Z,11.77
2023-05-06T01:04:05.061Z,11.75
2023-05-06T01:07:44.016Z,11.73
2023-05-06T01:10:57.780Z,11.77
2023-05-06T01:14:07.874Z,11.71
2023-05-06T01:17:12.984Z,11.74
2023-05-06T01:20:18.291Z,11.70
2023-05-06T01:23:20.263Z,11.55
2023-05-06T01:26:22.757Z,11.44
2023-05-06T01:29:24.393Z,11.28
2023-05-06T01:32:58.500Z,11.16
2023-05-06T01:36:08.680Z,11.10
2023-05-06T01:39:28.952Z,10.90
2023-05-06T01:42:32.173Z,10.82
2023-05-06T01:45:36.716Z,10.86
2023-05-06T01:48:39.955Z,10.87
2023-05-06T01:51:48.067Z,10.92
2023-05-06T01:54:49.664Z,10.98
2023-05-06T01:57:51.740Z,11.03
2023-05-06T02:00:53.531Z,11.10
2023-05-06T02:03:55.761Z,11.17
2023-05-06T02:06:58.675Z,11.17
2023-05-06T02:10:00.341Z,11.14
2023-05-06T02:13:02.570Z,11.19
2023-05-06T02:16:04.726Z,11.17
2023-05-06T02:19:07.704Z,11.13
2023-05-06T02:22:09.438Z,11.05
2023-05-06T02:25:11.429Z,10.90
2023-05-06T02:28:13.399Z,10.77
2023-05-06T02:31:16.294Z,10.65
2023-05-06T02:34:18.037Z,10.54
2023-05-06T02:37:19.954Z,10.44
2023-05-06T02:40:21.725Z,10.40
2023-05-06T02:43:23.390Z,10.27
2023-05-06T02:46:25.230Z,10.25
2023-05-06T02:49:27.191Z,10.25
2023-05-06T02:52:29.077Z,10.24
2023-05-06T02:55:30.932Z,10.23
2023-05-06T02:58:32.846Z,10.14
2023-05-06T03:01:34.728Z,10.09
2023-05-06T03:04:36.559Z,9.99
2023-05-06T03:07:38.914Z,9.96
2023-05-06T03:10:42.051Z,9.89
2023-05-06T03:13:44.104Z,9.86
2023-05-06T03:16:46.053Z,9.86
2023-05-06T03:19:50.765Z,9.83
2023-05-06T03:22:53.520Z,9.84
2023-05-06T03:25:57.151Z,9.86
2023-05-06T03:28:59.151Z,9.82
2023-05-06T03:32:07.320Z,9.78
2023-05-06T03:35:15.810Z,9.79
2023-05-06T03:38:21.273Z,9.78
2023-05-06T03:41:29.923Z,9.75
2023-05-06T03:44:31.933Z,9.76
2023-05-06T03:47:35.386Z,9.76
2023-05-06T03:50:39.185Z,9.70
2023-05-06T03:53:41.158Z,9.69
2023-05-06T03:56:42.786Z,9.75
2023-05-06T03:59:45.000Z,9.88
2023-05-06T04:02:46.926Z,10.07
2023-05-06T04:05:56.293Z,10.25
2023-05-06T04:09:00.990Z,10.38
2023-05-06T04:12:03.815Z,10.46
2023-05-06T04:15:07.464Z,10.50
2023-05-06T04:18:10.354Z,10.57
2023-05-06T04:21:15.956Z,10.70
2023-05-06T04:24:23.187Z,10.70
2023-05-06T04:27:27.716Z,10.73
2023-05-06T04:30:30.228Z,10.74
2023-05-06T04:33:32.910Z,10.80
2023-05-06T04:36:38.346Z,10.81
2023-05-06T04:40:02.237Z,10.80
2023-05-06T04:43:06.366Z,10.80
2023-05-06T04:46:08.741Z,10.86
2023-05-06T04:49:12.917Z,10.87
2023-05-06T04:52:15.604Z,10.83
2023-05-06T04:55:17.457Z,10.83
2023-05-06T04:58:23.687Z,10.82
2023-05-06T05:01:26.453Z,10.80
2023-05-06T05:04:28.120Z,10.84
2023-05-06T05:07:29.904Z,10.88
2023-05-06T05:10:31.968Z,10.95
2023-05-06T05:13:34.967Z,10.98
2023-05-06T05:16:38.432Z,11.07
2023-05-06T05:19:41.231Z,11.26
2023-05-06T05:22:44.647Z,11.25
2023-05-06T05:25:46.447Z,11.08
2023-05-06T05:28:48.651Z,10.94
2023-05-06T05:31:50.363Z,10.89
2023-05-06T05:34:53.156Z,10.83
2023-05-06T05:37:55.146Z,10.87
2023-05-06T05:40:58.222Z,10.80
2023-05-06T05:44:00.388Z,10.85
2023-05-06T05:47:02.921Z,10.99
2023-05-06T05:50:06.462Z,11.16
2023-05-06T05:53:08.545Z,11.12
2023-05-06T05:56:12.446Z,11.13
2023-05-06T05:59:14.338Z,11.34
2023-05-06T06:02:17.521Z,11.70
2023-05-06T06:05:19.516Z,11.87
2023-05-06T06:08:21.843Z,12.08
2023-05-06T06:11:28.661Z,12.15
2023-05-06T06:14:30.578Z,12.07
2023-05-06T06:17:32.730Z,11.91
2023-05-06T06:20:35.511Z,11.87
2023-05-06T06:23:37.773Z,11.93
2023-05-06T06:26:40.836Z,12.09
2023-05-06T06:29:42.559Z,12.10
2023-05-06T06:32:49.764Z,12.02
2023-05-06T06:35:51.450Z,12.13
2023-05-06T06:38:53.135Z,12.41
2023-05-06T06:41:58.133Z,12.82
2023-05-06T06:44:59.735Z,13.03
2023-05-06T06:48:01.765Z,13.22
2023-05-06T06:51:03.774Z,13.26
2023-05-06T06:54:05.698Z,13.49
2023-05-06T06:57:07.427Z,13.65
2023-05-06T07:00:10.340Z,13.51
2023-05-06T07:03:15.693Z,13.25
2023-05-06T07:06:17.402Z,13.19
2023-05-06T07:09:19.144Z,13.56
2023-05-06T07:12:20.911Z,13.93
2023-05-06T07:15:22.880Z,14.10
2023-05-06T07:18:25.104Z,14.23
2023-05-06T07:21:27.189Z,14.54
2023-05-06T07:24:28.758Z,14.52
2023-05-06T07:27:30.784Z,14.43
2023-05-06T07:30:32.804Z,14.32
2023-05-06T07:33:34.587Z,14.38
2023-05-06T07:36:40.662Z,14.66
2023-05-06T07:39:43.206Z,15.04
2023-05-06T07:42:44.967Z,15.28
2023-05-06T07:45:46.605Z,15.12
2023-05-06T07:48:49.282Z,14.94
2023-05-06T07:51:51.262Z,14.84
2023-05-06T07:54:53.290Z,14.86
2023-05-06T07:57:55.378Z,15.24
2023-05-06T08:00:57.979Z,15.51
2023-05-06T08:04:00.761Z,15.52
2023-05-06T08:07:02.583Z,15.50
2023-05-06T08:10:04.953Z,15.21
2023-05-06T08:13:06.830Z,14.89
2023-05-06T08:16:08.957Z,14.95
2023-05-06T08:19:11.374Z,15.31
2023-05-06T08:22:13.056Z,15.68
2023-05-06T08:25:15.091Z,15.82
2023-05-06T08:28:17.980Z,15.96
2023-05-06T08:31:20.056Z,16.12
2023-05-06T08:34:22.368Z,16.22
2023-05-06T08:37:24.506Z,16.40
2023-05-06T08:40:27.259Z,16.27
2023-05-06T08:43:33.235Z,16.18
2023-05-06T08:46:35.728Z,16.36
2023-05-06T08:49:37.509Z,16.55
2023-05-06T08:52:40.237Z,16.64
2023-05-06T08:55:42.648Z,16.71
2023-05-06T08:58:52.003Z,16.68
2023-05-06T09:01:53.650Z,16.36
2023-05-06T09:04:56.720Z,16.47
2023-05-06T09:07:58.599Z,16.72
2023-05-06T09:11:00.467Z,16.93
2023-05-06T09:14:10.125Z,17.14
2023-05-06T09:17:29.165Z,17.01
2023-05-06T09:20:40.197Z,16.88
2023-05-06T09:23:42.239Z,16.83
2023-05-06T09:26:47.272Z,16.83
2023-05-06T09:30:07.129Z,16.84
2023-05-06T09:33:12.674Z,16.94
2023-05-06T09:36:15.637Z,17.08
2023-05-06T09:39:17.807Z,17.11
2023-05-06T09:42:21.768Z,17.24
2023-05-06T09:45:24.397Z,17.46
2023-05-06T09:48:32.474Z,17.54
2023-05-06T09:51:34.933Z,17.52
2023-05-06T09:54:36.972Z,17.70
2023-05-06T09:57:40.864Z,17.90
2023-05-06T10:00:43.829Z,17.69
2023-05-06T10:03:46.457Z,17.36
2023-05-06T10:06:49.766Z,17.37
2023-05-06T10:09:54.405Z,17.55
2023-05-06T10:12:56.785Z,17.73
2023-05-06T10:16:02.929Z,17.86
2023-05-06T10:19:08.199Z,18.01
2023-05-06T10:22:30.647Z,18.35
2023-05-06T10:25:43.761Z,18.82
2023-05-06T10:28:50.157Z,19.15
2023-05-06T10:31:57.209Z,19.14
2023-05-06T10:35:09.727Z,19.21
2023-05-06T10:38:37.493Z,19.06
2023-05-06T10:41:40.413Z,18.71
2023-05-06T10:45:03.823Z,18.76
2023-05-06T10:48:11.595Z,18.92
2023-05-06T10:51:20.406Z,18.77
2023-05-06T10:54:23.648Z,18.49
2023-05-06T10:57:27.430Z,18.21
2023-05-06T11:00:34.315Z,18.01
2023-05-06T11:03:36.659Z,17.77
2023-05-06T11:06:54.393Z,17.65
2023-05-06T11:10:08.291Z,17.98
2023-05-06T11:13:29.242Z,18.73
2023-05-06T11:16:50.556Z,18.74
2023-05-06T11:20:33.402Z,18.60
2023-05-06T11:23:50.733Z,19.02
2023-05-06T11:26:52.988Z,19.10
2023-05-06T11:29:55.862Z,19.11
2023-05-06T11:33:05.425Z,18.91
2023-05-06T11:36:14.191Z,18.52
2023-05-06T11:39:16.041Z,18.29
2023-05-06T11:42:25.231Z,18.23
2023-05-06T11:45:39.911Z,18.17
2023-05-06T11:48:43.662Z,18.61
2023-05-06T11:51:48.756Z,18.72
2023-05-06T11:54:54.034Z,19.25
2023-05-06T11:57:56.158Z,19.89
2023-05-06T12:01:03.142Z,19.84
2023-05-06T12:04:05.879Z,19.28
2023-05-06T12:07:10.184Z,19.42
2023-05-06T12:10:12.435Z,19.85
2023-05-06T12:13:16.404Z,20.30
2023-05-06T12:16:18.409Z,19.82
2023-05-06T12:19:21.611Z,19.68
2023-05-06T12:22:27.108Z,20.13
2023-05-06T12:25:29.232Z,20.54
2023-05-06T12:28:32.770Z,20.64
2023-05-06T12:31:35.502Z,20.19
2023-05-06T12:34:43.907Z,19.93
2023-05-06T12:37:45.936Z,20.20
2023-05-06T12:40:56.506Z,20.51
2023-05-06T12:43:58.432Z,20.58
2023-05-06T12:47:01.792Z,20.21
2023-05-06T12:50:04.061Z,20.04
2023-05-06T12:53:08.116Z,20.20
2023-05-06T12:56:10.229Z,20.41
2023-05-06T12:59:13.918Z,20.56
2023-05-06T13:02:16.243Z,20.80
2023-05-06T13:05:18.328Z,20.94
2023-05-06T13:08:20.028Z,20.82
2023-05-06T13:11:22.418Z,20.70
2023-05-06T13:14:24.593Z,20.54
2023-05-06T13:17:27.671Z,20.44
2023-05-06T13:20:32.874Z,20.34
2023-05-06T13:23:36.743Z,20.46
2023-05-06T13:26:38.925Z,20.80
2023-05-06T13:29:41.184Z,20.99
2023-05-06T13:32:42.981Z,21.17
2023-05-06T13:35:49.826Z,21.22
2023-05-06T13:38:52.356Z,21.39
2023-05-06T13:41:54.380Z,21.63
2023-05-06T13:44:56.660Z,21.56
2023-05-06T13:47:58.771Z,21.52
2023-05-06T13:51:00.872Z,21.37
2023-05-06T13:54:04.372Z,21.30
2023-05-06T13:57:06.394Z,21.42
2023-05-06T14:00:11.134Z,21.47
2023-05-06T14:03:13.057Z,21.88
2023-05-06T14:06:15.438Z,22.05
2023-05-06T14:09:19.135Z,21.79
2023-05-06T14:12:23.180Z,21.77
2023-05-06T14:15:25.081Z,21.57
2023-05-06T14:18:27.887Z,21.58
2023-05-06T14:21:29.875Z,21.57
2023-05-06T14:24:32.276Z,21.49
2023-05-06T14:27:34.241Z,21.50
2023-05-06T14:30:37.217Z,21.86
2023-05-06T14:33:39.442Z,22.25
2023-05-06T14:36:41.576Z,22.53
2023-05-06T14:39:43.713Z,22.62
2023-05-06T14:42:46.298Z,22.50
2023-05-06T14:45:49.034Z,22.57
2023-05-06T14:48:51.224Z,22.68
2023-05-06T14:51:53.670Z,22.62
2023-05-06T14:54:56.210Z,22.23
2023-05-06T14:57:58.569Z,21.90
2023-05-06T15:01:00.568Z,21.99
2023-05-06T15:04:05.255Z,22.32
2023-05-06T15:07:08.605Z,22.62
2023-05-06T15:10:12.052Z,22.45
2023-05-06T15:13:14.081Z,22.39
2023-05-06T15:16:16.723Z,22.36
2023-05-06T15:19:18.947Z,22.52
2023-05-06T15:22:20.769Z,22.73
2023-05-06T15:25:34.147Z,22.77
2023-05-06T15:28:37.366Z,22.62
2023-05-06T15:31:40.985Z,22.36
2023-05-06T15:34:43.114Z,22.18
2023-05-06T15:37:45.406Z,22.03
2023-05-06T15:40:51.346Z,22.04
2023-05-06T15:44:00.344Z,22.28
2023-05-06T15:47:02.410Z,22.72
2023-05-06T15:50:16.367Z,22.90
2023-05-06T15:53:25.339Z,22.77
2023-05-06T15:56:27.344Z,22.44
2023-05-06T15:59:29.555Z,22.10
2023-05-06T16:02:32.746Z,21.99
2023-05-06T16:05:34.894Z,21.99
2023-05-06T16:08:38.280Z,22.04
2023-05-06T16:11:40.043Z,22.17
2023-05-06T16:14:42.062Z,22.36
2023-05-06T16:17:43.816Z,22.42
2023-05-06T16:20:45.650Z,22.50
2023-05-06T16:23:47.513Z,22.67
2023-05-06T16:26:50.559Z,22.85
2023-05-06T16:29:52.384Z,22.63
2023-05-06T16:32:54.473Z,22.09
2023-05-06T16:35:57.047Z,21.72
2023-05-06T16:38:58.854Z,21.61
2023-05-06T16:42:00.913Z,21.33
2023-05-06T16:45:02.722Z,20.87
2023-05-06T16:48:05.129Z,20.53
2023-05-06T16:51:07.106Z,20.85
2023-05-06T16:54:09.032Z,21.05
2023-05-06T16:57:11.170Z,20.69
2023-05-06T17:00:13.740Z,20.31
2023-05-06T17:03:16.308Z,20.09
2023-05-06T17:06:18.287Z,20.09
2023-05-06T17:09:20.619Z,20.13
2023-05-06T17:12:23.865Z,20.14
2023-05-06T17:15:25.812Z,19.87
2023-05-06T17:18:27.877Z,19.67
2023-05-06T17:21:29.902Z,20.27
2023-05-06T17:24:32.965Z,21.01
2023-05-06T17:27:34.968Z,21.18
2023-05-06T17:30:36.836Z,21.00
2023-05-06T17:33:39.219Z,20.92
2023-05-06T17:36:41.076Z,20.93
2023-05-06T17:39:42.929Z,20.62
2023-05-06T17:42:44.762Z,20.39
2023-05-06T17:45:47.016Z,19.85
2023-05-06T17:48:49.109Z,19.31
2023-05-06T17:51:51.315Z,18.86
2023-05-06T17:55:10.734Z,18.54
2023-05-06T17:58:16.675Z,18.08
2023-05-06T18:01:18.503Z,17.75
2023-05-06T18:04:20.815Z,17.42
2023-05-06T18:07:22.820Z,17.18
2023-05-06T18:10:24.640Z,16.93
2023-05-06T18:13:27.578Z,16.69
2023-05-06T18:16:29.383Z,16.47
2023-05-06T18:19:31.104Z,16.19
2023-05-06T18:22:32.934Z,15.94
2023-05-06T18:25:34.885Z,15.72
2023-05-06T18:28:43.232Z,15.50
2023-05-06T18:31:45.386Z,15.31
2023-05-06T18:34:47.523Z,15.13
2023-05-06T18:37:49.231Z,14.95
2023-05-06T18:40:51.129Z,14.75
2023-05-06T18:43:52.994Z,14.49
2023-05-06T18:46:54.891Z,14.40
2023-05-06T18:49:57.659Z,14.13
2023-05-06T18:53:00.412Z,13.90
2023-05-06T18:56:02.288Z,13.73
2023-05-06T18:59:05.096Z,13.62
2023-05-06T19:02:08.195Z,13.49
2023-05-06T19:05:10.360Z,13.37
2023-05-06T19:08:13.748Z,13.27
2023-05-06T19:11:16.911Z,13.12
2023-05-06T19:14:19.316Z,12.97
2023-05-06T19:17:21.014Z,12.90
2023-05-06T19:20:22.792Z,12.81
2023-05-06T19:23:24.502Z,12.69
2023-05-06T19:26:27.181Z,12.62
2023-05-06T19:29:28.765Z,12.57
2023-05-06T19:32:32.740Z,12.48
2023-05-06T19:35:37.376Z,12.43
2023-05-06T19:38:38.996Z,12.40
2023-05-06T19:41:40.895Z,12.38
2023-05-06T19:44:42.675Z,12.37
2023-05-06T19:47:44.503Z,12.39
2023-05-06T19:50:46.143Z,12.38
2023-05-06T19:53:49.148Z,12.46
2023-05-06T19:56:50.880Z,12.56
2023-05-06T19:59:53.483Z,12.59
2023-05-06T20:02:57.820Z,12.67
2023-05-06T20:05:59.738Z,12.69
2023-05-06T20:09:01.573Z,12.76
2023-05-06T20:12:03.776Z,12.75
2023-05-06T20:15:07.256Z,12.77
2023-05-06T20:18:09.594Z,12.78
2023-05-06T20:21:11.651Z,12.73
2023-05-06T20:24:13.773Z,12.75
2023-05-06T20:27:16.407Z,12.73
2023-05-06T20:30:18.355Z,12.69
2023-05-06T20:33:20.190Z,12.69
2023-05-06T20:36:22.063Z,12.65
2023-05-06T20:39:23.960Z,12.59
2023-05-06T20:42:25.806Z,12.57
2023-05-06T20:45:30.033Z,12.51
2023-05-06T20:48:32.103Z,12.48
2023-05-06T20:51:34.246Z,12.39
2023-05-06T20:54:36.023Z,12.38
2023-05-06T20:57:42.280Z,12.35
2023-05-06T21:00:44.073Z,12.35
2023-05-06T21:03:48.876Z,12.35
2023-05-06T21:06:50.967Z,12.33
2023-05-06T21:09:52.762Z,12.28
2023-05-06T21:12:54.812Z,12.28
2023-05-06T21:15:56.812Z,12.28
2023-05-06T21:18:58.777Z,12.30
2023-05-06T21:22:00.695Z,12.28
2023-05-06T21:25:02.379Z,12.27
2023-05-06T21:28:06.277Z,12.24
2023-05-06T21:31:08.220Z,12.23
2023-05-06T21:34:10.752Z,12.17
2023-05-06T21:37:12.622Z,12.17
2023-05-06T21:40:14.498Z,12.11
2023-05-06T21:43:18.075Z,12.10
2023-05-06T21:46:19.923Z,12.12
2023-05-06T21:49:22.304Z,12.08
2023-05-06T21:52:24.654Z,12.07
2023-05-06T21:55:27.675Z,12.06
2023-05-06T21:58:29.389Z,12.03
2023-05-06T22:01:32.157Z,12.00
2023-05-06T22:04:33.894Z,12.00
2023-05-06T22:07:36.047Z,11.96
2023-05-06T22:10:37.874Z,11.94
2023-05-06T22:13:39.698Z,11.90
2023-05-06T22:16:42.960Z,11.90
2023-05-06T22:19:44.851Z,11.88
2023-05-06T22:22:47.037Z,11.93
2023-05-06T22:25:48.815Z,11.94
2023-05-06T22:28:50.696Z,11.95
2023-05-06T22:31:52.539Z,11.92
2023-05-06T22:34:55.496Z,11.94
2023-05-06T22:37:57.149Z,11.94
2023-05-06T22:40:59.036Z,11.88
2023-05-06T22:44:00.845Z,11.82
2023-05-06T22:47:02.578Z,11.85
2023-05-06T22:50:04.656Z,11.87
2023-05-06T22:53:14.374Z,11.81
2023-05-06T22:56:17.169Z,11.82
2023-05-06T22:59:19.030Z,11.79
2023-05-06T23:02:20.813Z,11.81
2023-05-06T23:05:22.555Z,11.80
2023-05-06T23:08:24.432Z,11.80
2023-05-06T23:11:26.351Z,11.79
2023-05-06T23:14:28.748Z,11.77
2023-05-06T23:17:30.926Z,11.76
2023-05-06T23:20:32.912Z,11.71
2023-05-06T23:23:34.756Z,11.70
2023-05-06T23:26:36.810Z,11.66
2023-05-06T23:29:38.670Z,11.66
2023-05-06T23:32:40.538Z,11.65
2023-05-06T23:35:43.413Z,11.59
2023-05-06T23:38:45.201Z,11.59
2023-05-06T23:41:48.057Z,11.53
2023-05-06T23:44:49.802Z,11.45
2023-05-06T23:47:52.240Z,11.46
2023-05-06T23:50:54.528Z,11.45
2023-05-06T23:53:56.440Z,11.35
2023-05-06T23:56:58.275Z,11.36
2023-05-06T23:59:59.959Z,11.38
